createdAt,value
2023-12-30T00:01:14.600Z,99069.64
2023-12-30T00:06:19.372Z,99083.48
2023-12-30T00:11:22.364Z,99063.44
2023-12-30T00:16:28.634Z,99051.27
2023-12-30T00:21:31.555Z,99052.43
2023-12-30T00:26:34.501Z,99054.04
2023-12-30T00:31:37.407Z,99047.79
2023-12-30T00:36:45.136Z,99049.42
2023-12-30T00:41:48.035Z,99040.02
2023-12-30T00:46:50.977Z,99042.85
2023-12-30T00:51:53.883Z,99035.70
2023-12-30T00:56:56.804Z,99030.14
2023-12-30T01:02:00.891Z,99032.80
2023-12-30T01:07:04.189Z,99023.39
2023-12-30T01:12:07.776Z,99017.51
2023-12-30T01:17:10.648Z,99018.73
2023-12-30T01:22:13.731Z,99032.78
2023-12-30T01:27:16.600Z,99037.96
2023-12-30T01:32:19.380Z,99014.58
2023-12-30T01:37:22.314Z,99013.39
2023-12-30T01:42:25.231Z,99000.29
2023-12-30T01:47:28.125Z,98988.25
2023-12-30T01:52:31.363Z,98990.35
2023-12-30T01:57:34.297Z,98980.96
2023-12-30T02:02:37.107Z,98978.52
2023-12-30T02:07:40.049Z,98968.27
2023-12-30T02:12:43.228Z,98964.84
2023-12-30T02:17:46.396Z,98958.33
2023-12-30T02:22:50.302Z,98955.48
2023-12-30T02:27:53.144Z,98949.07
2023-12-30T02:32:59.172Z,98945.28
2023-12-30T02:38:02.421Z,98944.73
2023-12-30T02:43:05.720Z,98947.20
2023-12-30T02:48:08.841Z,98945.97
2023-12-30T02:53:11.754Z,98941.83
2023-12-30T02:58:14.630Z,98944.66
2023-12-30T03:03:17.636Z,98944.65
2023-12-30T03:08:20.851Z,98926.46
2023-12-30T03:13:23.754Z,98910.12
2023-12-30T03:18:26.789Z,98900.52
2023-12-30T03:23:29.905Z,98909.16
2023-12-30T03:28:33.153Z,98915.30
2023-12-30T03:33:36.240Z,98901.67
2023-12-30T03:38:39.081Z,98899.70
2023-12-30T03:43:42.068Z,98898.13
2023-12-30T03:48:45.167Z,98905.60
2023-12-30T03:53:49.066Z,98903.16
2023-12-30T03:58:52.189Z,98901.39
2023-12-30T04:03:55.139Z,98903.17
2023-12-30T04:08:58.059Z,98894.33
2023-12-30T04:14:00.959Z,98893.02
2023-12-30T04:19:03.906Z,98901.63
2023-12-30T04:24:07.102Z,98906.30
2023-12-30T04:29:11.111Z,98897.40
2023-12-30T04:34:14.290Z,98902.36
2023-12-30T04:39:17.630Z,98904.15
2023-12-30T04:44:20.793Z,98901.73
2023-12-30T04:49:23.856Z,98903.17
2023-12-30T04:54:26.790Z,98897.84
2023-12-30T04:59:29.697Z,98901.89
2023-12-30T05:04:32.596Z,98900.48
2023-12-30T05:09:36.816Z,98888.83
2023-12-30T05:14:39.859Z,98894.44
2023-12-30T05:19:42.765Z,98910.38
2023-12-30T05:24:45.623Z,98925.75
2023-12-30T05:29:48.469Z,98921.44
2023-12-30T05:34:51.310Z,98925.11
2023-12-30T05:39:55.290Z,98930.61
2023-12-30T05:44:59.108Z,98928.67
2023-12-30T05:50:02.207Z,98923.83
2023-12-30T05:55:05.634Z,98929.30
2023-12-30T06:00:09.476Z,98931.64
2023-12-30T06:05:12.544Z,98934.31
2023-12-30T06:10:15.471Z,98942.48
2023-12-30T06:15:20.021Z,98955.80
2023-12-30T06:20:22.862Z,98971.42
2023-12-30T06:25:25.721Z,98972.87
2023-12-30T06:30:28.856Z,98965.75
2023-12-30T06:35:31.908Z,98973.73
2023-12-30T06:40:35.494Z,98981.44
2023-12-30T06:45:38.576Z,98984.64
2023-12-30T06:50:41.358Z,98994.18
2023-12-30T07:00:48.241Z,99011.44
2023-12-30T07:05:51.113Z,99005.94
2023-12-30T07:10:53.931Z,99008.72
2023-12-30T07:15:57.017Z,99010.64
2023-12-30T07:20:59.968Z,99012.25
2023-12-30T07:26:02.896Z,99017.89
2023-12-30T07:31:05.835Z,99025.11
2023-12-30T07:36:09.157Z,99032.38
2023-12-30T07:41:15.692Z,99040.84
2023-12-30T07:46:18.674Z,99042.30
2023-12-30T07:51:21.644Z,99033.23
2023-12-30T07:56:24.485Z,99023.65
2023-12-30T08:01:28.024Z,99042.83
2023-12-30T08:06:31.087Z,99058.53
2023-12-30T08:11:49.765Z,99071.06
2023-12-30T08:17:00.150Z,99081.31
2023-12-30T08:22:04.554Z,99077.96
2023-12-30T08:27:07.428Z,99082.27
2023-12-30T08:32:10.317Z,99097.30
2023-12-30T08:37:13.190Z,99104.83
2023-12-30T08:42:16.204Z,99121.48
2023-12-30T08:47:19.348Z,99126.23
2023-12-30T08:52:22.469Z,99133.91
2023-12-30T08:57:25.576Z,99121.44
2023-12-30T09:02:28.520Z,99118.56
2023-12-30T09:07:32.230Z,99114.48
2023-12-30T09:12:35.200Z,99105.24
2023-12-30T09:17:38.333Z,99107.57
2023-12-30T09:22:41.295Z,99122.30
2023-12-30T09:27:44.275Z,99125.38
2023-12-30T09:32:47.211Z,99122.53
2023-12-30T09:37:50.264Z,99118.35
2023-12-30T09:42:53.155Z,99127.21
2023-12-30T09:47:56.058Z,99135.86
2023-12-30T09:52:58.917Z,99128.11
2023-12-30T09:58:02.261Z,99126.44
2023-12-30T10:03:05.648Z,99127.15
2023-12-30T10:08:08.901Z,99124.67
2023-12-30T10:13:16.017Z,99122.17
2023-12-30T10:18:19.282Z,99120.45
2023-12-30T10:23:22.820Z,99119.90
2023-12-30T10:28:25.712Z,99120.96
2023-12-30T10:33:28.677Z,99123.24
2023-12-30T10:38:31.630Z,99135.77
2023-12-30T10:43:34.712Z,99121.65
2023-12-30T10:48:41.110Z,99124.41
2023-12-30T10:53:46.512Z,99141.88
2023-12-30T10:58:49.694Z,99148.73
2023-12-30T11:03:53.397Z,99143.82
2023-12-30T11:09:00.431Z,99145.08
2023-12-30T11:14:05.093Z,99141.00
2023-12-30T11:19:07.991Z,99151.50
2023-12-30T11:24:12.273Z,99151.51
2023-12-30T11:29:18.246Z,99153.88
2023-12-30T11:34:21.466Z,99151.43
2023-12-30T11:39:29.873Z,99152.11
2023-12-30T11:44:32.829Z,99156.76
2023-12-30T11:49:37.254Z,99163.69
2023-12-30T11:54:41.329Z,99162.20
2023-12-30T11:59:44.150Z,99158.31
2023-12-30T12:04:47.765Z,99155.48
2023-12-30T12:09:50.874Z,99157.45
2023-12-30T12:14:55.154Z,99160.13
2023-12-30T12:19:58.534Z,99167.89
2023-12-30T12:25:03.658Z,99174.48
2023-12-30T12:30:09.199Z,99174.54
2023-12-30T12:35:12.830Z,99184.29
2023-12-30T12:40:15.936Z,99191.10
2023-12-30T12:45:18.973Z,99206.73
2023-12-30T12:50:21.860Z,99222.70
2023-12-30T12:55:24.927Z,99234.48
2023-12-30T13:00:27.856Z,99247.85
2023-12-30T13:05:30.699Z,99257.64
2023-12-30T13:10:33.694Z,99269.40
2023-12-30T13:15:36.996Z,99273.52
2023-12-30T13:20:42.726Z,99280.64
2023-12-30T13:25:48.810Z,99283.10
2023-12-30T13:30:52.367Z,99293.88
2023-12-30T13:35:55.271Z,99299.52
2023-12-30T13:41:01.540Z,99304.61
2023-12-30T13:46:23.378Z,99314.47
2023-12-30T13:51:26.389Z,99324.44
2023-12-30T13:56:29.853Z,99328.48
2023-12-30T14:01:34.638Z,99330.59
2023-12-30T14:06:40.547Z,99342.36
2023-12-30T14:11:49.447Z,99357.21
2023-12-30T14:16:52.331Z,99360.94
2023-12-30T14:21:57.315Z,99365.41
2023-12-30T14:27:01.166Z,99369.30
2023-12-30T14:32:06.386Z,99377.27
2023-12-30T14:37:10.357Z,99379.89
2023-12-30T14:42:13.421Z,99378.14
2023-12-30T14:47:17.039Z,99385.06
2023-12-30T14:52:20.053Z,99393.09
2023-12-30T14:57:22.921Z,99399.71
2023-12-30T15:02:27.193Z,99403.50
2023-12-30T15:07:30.314Z,99411.54
2023-12-30T15:12:33.491Z,99408.40
2023-12-30T15:17:36.587Z,99410.70
2023-12-30T15:22:40.596Z,99419.45
2023-12-30T15:27:44.746Z,99421.95
2023-12-30T15:32:48.174Z,99435.61
2023-12-30T15:37:51.362Z,99446.79
2023-12-30T15:42:54.352Z,99450.69
2023-12-30T15:47:57.228Z,99453.90
2023-12-30T15:53:00.362Z,99467.61
2023-12-30T15:58:03.556Z,99471.23
2023-12-30T16:03:06.693Z,99478.52
2023-12-30T16:08:11.059Z,99478.38
2023-12-30T16:13:14.598Z,99483.02
2023-12-30T16:18:18.233Z,99480.83
2023-12-30T16:23:21.218Z,99482.72
2023-12-30T16:28:24.150Z,99485.73
2023-12-30T16:33:27.053Z,99493.11
2023-12-30T16:38:30.023Z,99496.78
2023-12-30T16:43:35.180Z,99502.31
2023-12-30T16:48:38.177Z,99503.39
2023-12-30T16:53:42.744Z,99509.75
2023-12-30T16:58:45.807Z,99516.73
2023-12-30T17:03:48.739Z,99518.85
2023-12-30T17:08:52.161Z,99528.84
2023-12-30T17:13:55.111Z,99538.98
2023-12-30T17:18:59.379Z,99544.88
2023-12-30T17:24:03.130Z,99540.67
2023-12-30T17:29:06.061Z,99543.02
2023-12-30T17:34:09.807Z,99546.91
2023-12-30T17:39:12.788Z,99548.57
2023-12-30T17:44:15.595Z,99554.45
2023-12-30T17:49:18.655Z,99567.05
2023-12-30T17:54:21.523Z,99573.52
2023-12-30T17:59:24.380Z,99583.49
2023-12-30T18:04:27.229Z,99599.80
2023-12-30T18:09:30.172Z,99613.80
2023-12-30T18:14:33.160Z,99630.34
2023-12-30T18:19:36.075Z,99638.33
2023-12-30T18:24:39.765Z,99647.02
2023-12-30T18:29:43.204Z,99657.16
2023-12-30T18:34:46.055Z,99654.15
2023-12-30T18:39:49.157Z,99651.81
2023-12-30T18:44:51.941Z,99646.09
2023-12-30T18:49:55.136Z,99648.88
2023-12-30T18:54:58.119Z,99646.56
2023-12-30T19:00:00.957Z,99644.91
2023-12-30T19:05:05.007Z,99654.39
2023-12-30T19:10:08.893Z,99665.83
2023-12-30T19:15:11.850Z,99679.84
2023-12-30T19:20:14.713Z,99694.54
2023-12-30T19:25:17.583Z,99697.79
2023-12-30T19:30:20.429Z,99706.98
2023-12-30T19:35:23.914Z,99711.48
2023-12-30T19:40:27.258Z,99720.95
2023-12-30T19:45:30.212Z,99725.88
2023-12-30T19:50:33.412Z,99727.65
2023-12-30T19:55:36.498Z,99732.84
2023-12-30T20:00:39.619Z,99739.45
2023-12-30T20:05:42.548Z,99734.85
2023-12-30T20:10:45.516Z,99729.23
2023-12-30T20:15:48.829Z,99732.86
2023-12-30T20:20:51.662Z,99745.27
2023-12-30T20:25:54.603Z,99758.26
2023-12-30T20:30:57.566Z,99765.24
2023-12-30T20:36:00.638Z,99773.48
2023-12-30T20:41:03.592Z,99776.15
2023-12-30T20:46:10.370Z,99781.71
2023-12-30T20:51:13.990Z,99788.28
2023-12-30T20:56:16.813Z,99794.55
2023-12-30T21:01:20.090Z,99809.10
2023-12-30T21:06:23.012Z,99814.63
2023-12-30T21:11:26.849Z,99817.67
2023-12-30T21:16:30.228Z,99823.77
2023-12-30T21:21:33.149Z,99826.91
2023-12-30T21:26:36.036Z,99832.73
2023-12-30T21:31:43.009Z,99836.42
2023-12-30T21:36:45.884Z,99837.38
2023-12-30T21:41:48.753Z,99828.09
2023-12-30T21:46:51.648Z,99838.20
2023-12-30T21:51:54.531Z,99846.19
2023-12-30T21:56:57.363Z,99848.05
2023-12-30T22:02:00.242Z,99850.02
2023-12-30T22:07:03.249Z,99852.16
2023-12-30T22:12:06.494Z,99856.45
2023-12-30T22:17:11.016Z,99866.00
2023-12-30T22:22:14.448Z,99877.71
2023-12-30T22:27:17.289Z,99872.05
2023-12-30T22:32:20.651Z,99879.35
2023-12-30T22:37:23.673Z,99877.61
2023-12-30T22:42:26.531Z,99871.98
2023-12-30T22:47:29.507Z,99874.88
2023-12-30T22:52:36.346Z,99882.34
2023-12-30T22:57:39.235Z,99883.95
2023-12-30T23:02:42.176Z,99888.21
2023-12-30T23:07:45.704Z,99886.65
2023-12-30T23:12:48.594Z,99892.30
2023-12-30T23:17:51.558Z,99891.11
2023-12-30T23:22:54.708Z,99897.05
2023-12-30T23:27:57.628Z,99905.44
2023-12-30T23:33:00.580Z,99913.44
2023-12-30T23:38:03.723Z,99922.69
2023-12-30T23:43:06.833Z,99925.73
2023-12-30T23:48:10.097Z,99928.02
2023-12-30T23:53:14.196Z,99925.17
2023-12-30T23:58:17.538Z,99925.06
